Time;durP1;ratioP1;P1;durP2;ratioP2;P2;SDS_P1;SDS_P2;PMS_P1;PMS_P2;Temp;Humidity;BMP_temperature;BMP_pressure;BME280_temperature;BME280_humidity;BME280_pressure;Samples;Min_cycle;Max_cycle;Signal;HPM_P1;HPM_P2
2021/11/25 00:00:58;;;;;;;4.17;3.77;;;;;;;;;;5074674;28;20226;-75
2021/11/25 00:03:24;;;;;;;6.40;4.20;;;;;;;;;;5074452;28;20323;-74
2021/11/25 00:05:50;;;;;;;5.40;4.00;;;;;;;;;;5039192;28;20299;-75
2021/11/25 00:08:17;;;;;;;4.70;4.10;;;;;;;;;;5072546;28;20241;-75
2021/11/25 00:10:45;;;;;;;4.73;3.67;;;;;;;;;;5043002;28;20624;-75
2021/11/25 00:13:16;;;;;;;4.77;4.30;;;;;;;;;;5028651;28;20230;-75
2021/11/25 00:15:41;;;;;;;4.40;4.00;;;;;;;;;;5000147;28;20407;-75
2021/11/25 00:18:09;;;;;;;5.30;4.20;;;;;;;;;;5032308;28;20319;-75
2021/11/25 00:20:37;;;;;;;5.10;3.97;;;;;;;;;;5034880;28;20224;-75
2021/11/25 00:23:03;;;;;;;6.90;4.30;;;;;;;;;;5018697;28;20302;-75
2021/11/25 00:25:29;;;;;;;6.53;4.70;;;;;;;;;;5018737;28;20223;-75
2021/11/25 00:27:57;;;;;;;4.27;3.60;;;;;;;;;;5050720;28;20222;-75
2021/11/25 00:30:27;;;;;;;4.60;4.07;;;;;;;;;;5035395;28;20231;-74
2021/11/25 00:32:55;;;;;;;5.97;3.83;;;;;;;;;;5047960;28;20219;-74
2021/11/25 00:35:23;;;;;;;5.27;3.90;;;;;;;;;;5018556;28;20234;-73
2021/11/25 00:37:54;;;;;;;4.43;3.97;;;;;;;;;;5016924;28;20720;-75
2021/11/25 00:40:19;;;;;;;4.33;3.93;;;;;;;;;;5031744;28;20235;-76
2021/11/25 00:42:46;;;;;;;4.73;3.83;;;;;;;;;;5035512;28;20701;-75
2021/11/25 00:45:14;;;;;;;4.40;4.00;;;;;;;;;;5051341;28;20223;-74
2021/11/25 00:47:40;;;;;;;4.90;3.80;;;;;;;;;;5035445;28;20223;-74
2021/11/25 00:50:07;;;;;;;6.63;4.63;;;;;;;;;;5035339;28;20224;-76
2021/11/25 00:52:33;;;;;;;4.43;4.03;;;;;;;;;;5016345;28;20224;-76
2021/11/25 00:55:03;;;;;;;6.03;4.03;;;;;;;;;;5024901;28;20231;-75
2021/11/25 00:57:29;;;;;;;4.97;3.97;;;;;;;;;;5056614;28;20246;-75
2021/11/25 00:59:54;;;;;;;6.50;4.20;;;;;;;;;;5038798;28;20248;-75
2021/11/25 01:02:22;;;;;;;5.10;4.30;;;;;;;;;;5021537;28;20253;-77
2021/11/25 01:04:53;;;;;;;4.27;3.87;;;;;;;;;;5054335;28;20264;-75
2021/11/25 01:07:23;;;;;;;5.53;4.63;;;;;;;;;;5023985;28;20332;-76
2021/11/25 01:09:51;;;;;;;4.63;3.90;;;;;;;;;;5046708;28;20250;-75
2021/11/25 01:12:24;;;;;;;5.23;4.33;;;;;;;;;;5013915;28;20674;-75
2021/11/25 01:14:58;;;;;;;5.87;4.13;;;;;;;;;;5080413;28;20251;-76
2021/11/25 01:17:28;;;;;;;6.20;4.07;;;;;;;;;;5081203;28;20223;-76
2021/11/25 01:19:54;;;;;;;4.47;4.07;;;;;;;;;;5071540;28;20267;-75
2021/11/25 01:22:22;;;;;;;5.10;4.27;;;;;;;;;;5074958;28;20207;-75
2021/11/25 01:24:50;;;;;;;4.57;4.10;;;;;;;;;;5070257;28;20594;-75
2021/11/25 01:27:20;;;;;;;4.47;4.07;;;;;;;;;;5044944;28;20711;-75
2021/11/25 01:29:46;;;;;;;4.50;4.10;;;;;;;;;;5042201;28;20561;-75
2021/11/25 01:32:13;;;;;;;5.13;4.07;;;;;;;;;;5068436;28;20684;-74
2021/11/25 01:34:41;;;;;;;5.13;4.53;;;;;;;;;;5054274;28;20226;-75
2021/11/25 01:37:07;;;;;;;4.70;3.90;;;;;;;;;;5049964;28;20288;-75
2021/11/25 01:39:35;;;;;;;4.07;3.67;;;;;;;;;;5058793;28;20213;-75
2021/11/25 01:42:03;;;;;;;4.87;3.63;;;;;;;;;;5038398;28;20305;-75
2021/11/25 01:44:31;;;;;;;5.53;3.90;;;;;;;;;;5034739;28;20219;-75
2021/11/25 01:47:03;;;;;;;4.57;4.03;;;;;;;;;;5066675;28;20226;-76
2021/11/25 01:49:29;;;;;;;8.07;5.87;;;;;;;;;;5062899;28;20218;-77
2021/11/25 01:51:57;;;;;;;18.27;12.10;;;;;;;;;;5067946;28;20238;-76
2021/11/25 01:54:26;;;;;;;14.13;9.50;;;;;;;;;;5050710;28;20212;-76
2021/11/25 01:56:51;;;;;;;17.93;10.40;;;;;;;;;;5033220;28;20310;-75
2021/11/25 01:59:19;;;;;;;20.03;11.03;;;;;;;;;;5070441;28;20313;-75
2021/11/25 02:01:47;;;;;;;14.23;9.47;;;;;;;;;;5054157;28;20294;-75
2021/11/25 02:04:17;;;;;;;10.40;7.50;;;;;;;;;;5037436;28;20226;-75
2021/11/25 02:06:45;;;;;;;11.20;7.40;;;;;;;;;;5070334;28;20272;-75
2021/11/25 02:09:11;;;;;;;6.07;4.87;;;;;;;;;;5037849;28;20227;-75
2021/11/25 02:11:39;;;;;;;8.83;4.90;;;;;;;;;;5057236;28;20210;-75
2021/11/25 02:14:10;;;;;;;5.53;4.87;;;;;;;;;;5057216;28;20343;-75
2021/11/25 02:16:37;;;;;;;6.57;5.13;;;;;;;;;;5036019;28;20234;-76
2021/11/25 02:19:05;;;;;;;5.60;5.00;;;;;;;;;;5070002;28;20222;-75
2021/11/25 02:21:30;;;;;;;5.27;4.53;;;;;;;;;;5073906;28;20225;-76
2021/11/25 02:23:56;;;;;;;5.40;4.50;;;;;;;;;;5067951;28;20309;-75
2021/11/25 02:26:22;;;;;;;5.57;4.77;;;;;;;;;;5056891;28;20704;-75
2021/11/25 02:28:47;;;;;;;7.53;4.90;;;;;;;;;;5026847;28;20318;-76
2021/11/25 02:31:13;;;;;;;6.00;5.10;;;;;;;;;;5050248;28;20226;-76
2021/11/25 02:33:40;;;;;;;7.07;4.83;;;;;;;;;;5053567;28;20287;-77
2021/11/25 02:36:10;;;;;;;6.27;4.80;;;;;;;;;;5052410;28;20233;-77
2021/11/25 02:38:38;;;;;;;5.83;4.50;;;;;;;;;;5051995;28;20575;-76
2021/11/25 02:41:04;;;;;;;7.70;4.97;;;;;;;;;;5033149;28;20640;-76
2021/11/25 02:43:30;;;;;;;5.70;4.50;;;;;;;;;;5033169;28;20223;-76
2021/11/25 02:46:03;;;;;;;6.00;4.63;;;;;;;;;;5016566;28;20758;-76
2021/11/25 02:48:48;;;;;;;5.63;4.63;;;;;;;;;;5039764;28;20222;-75
2021/11/25 02:51:30;;;;;;;5.20;4.00;;;;;;;;;;5069514;28;20333;-76
2021/11/25 02:53:58;;;;;;;4.87;3.93;;;;;;;;;;5068184;28;20310;-75
2021/11/25 02:56:24;;;;;;;3.90;3.47;;;;;;;;;;5035904;28;20364;-76
2021/11/25 02:58:55;;;;;;;4.87;4.37;;;;;;;;;;5039362;28;20326;-76
2021/11/25 03:01:21;;;;;;;7.60;3.83;;;;;;;;;;5036519;28;20244;-75
2021/11/25 03:03:49;;;;;;;6.00;4.53;;;;;;;;;;5070794;28;20231;-75
2021/11/25 03:06:20;;;;;;;6.47;4.13;;;;;;;;;;5070033;28;20276;-76
2021/11/25 03:08:48;;;;;;;5.77;4.30;;;;;;;;;;5052926;28;20218;-76
2021/11/25 03:11:21;;;;;;;6.20;3.70;;;;;;;;;;5049072;28;20295;-75
2021/11/25 03:13:56;;;;;;;6.40;4.27;;;;;;;;;;5015855;28;20715;-75
2021/11/25 03:16:24;;;;;;;5.90;4.37;;;;;;;;;;5018784;28;20235;-76
2021/11/25 03:18:52;;;;;;;5.23;4.73;;;;;;;;;;5064610;28;20297;-74
2021/11/25 03:21:18;;;;;;;6.23;5.00;;;;;;;;;;5019392;28;20223;-75
2021/11/25 03:23:45;;;;;;;6.87;4.43;;;;;;;;;;5037954;28;20215;-76
2021/11/25 03:26:11;;;;;;;7.20;4.73;;;;;;;;;;5073657;28;20805;-76
2021/11/25 03:28:42;;;;;;;5.70;4.70;;;;;;;;;;5057485;28;20219;-76
2021/11/25 03:31:10;;;;;;;5.80;4.40;;;;;;;;;;5016878;28;20223;-75
2021/11/25 03:33:38;;;;;;;6.20;4.37;;;;;;;;;;5033573;28;20243;-75
2021/11/25 03:36:07;;;;;;;5.00;4.20;;;;;;;;;;5035654;28;20496;-75
2021/11/25 03:38:37;;;;;;;5.23;4.73;;;;;;;;;;5034656;28;20218;-76
2021/11/25 03:41:06;;;;;;;5.37;4.57;;;;;;;;;;5062311;28;20231;-76
2021/11/25 03:43:36;;;;;;;4.80;4.37;;;;;;;;;;5033301;28;20229;-75
2021/11/25 03:46:01;;;;;;;5.03;4.43;;;;;;;;;;5052069;28;20222;-75
2021/11/25 03:48:32;;;;;;;4.63;4.17;;;;;;;;;;5052480;28;20219;-75
2021/11/25 03:51:05;;;;;;;5.50;4.57;;;;;;;;;;5052180;28;20699;-75
2021/11/25 03:53:33;;;;;;;5.03;4.53;;;;;;;;;;5036062;28;20218;-75
2021/11/25 03:55:59;;;;;;;10.13;4.30;;;;;;;;;;5035007;28;20968;-75
2021/11/25 03:58:27;;;;;;;5.70;4.40;;;;;;;;;;5051695;28;20242;-75
2021/11/25 04:00:53;;;;;;;5.73;4.73;;;;;;;;;;5032159;28;20251;-74
2021/11/25 04:03:19;;;;;;;5.73;5.07;;;;;;;;;;5032203;28;20223;-75
2021/11/25 04:05:45;;;;;;;5.33;4.03;;;;;;;;;;5021506;28;20750;-75
2021/11/25 04:08:11;;;;;;;6.17;4.80;;;;;;;;;;5084184;28;20227;-76
2021/11/25 04:10:36;;;;;;;5.73;4.23;;;;;;;;;;5070559;28;20602;-76
2021/11/25 04:13:04;;;;;;;6.67;4.73;;;;;;;;;;5069285;28;20218;-76
2021/11/25 04:15:31;;;;;;;7.20;4.50;;;;;;;;;;5032006;28;20701;-75
2021/11/25 04:18:00;;;;;;;6.07;4.77;;;;;;;;;;5032648;28;20242;-76
2021/11/25 04:20:25;;;;;;;5.53;4.40;;;;;;;;;;5051836;28;20293;-75
2021/11/25 04:22:56;;;;;;;4.77;4.20;;;;;;;;;;5035695;28;20223;-75
2021/11/25 04:25:26;;;;;;;5.40;4.10;;;;;;;;;;5069790;28;20214;-75
2021/11/25 04:27:52;;;;;;;4.70;4.30;;;;;;;;;;5061427;28;20231;-75
2021/11/25 04:35:33;;;;;;;5.17;3.63;;;;;;;;;;5040073;28;20744;-75
2021/11/25 04:38:07;;;;;;;5.57;3.70;;;;;;;;;;5052562;28;20241;-75
2021/11/25 04:40:37;;;;;;;4.57;3.47;;;;;;;;;;5069816;28;20214;-75
2021/11/25 04:43:07;;;;;;;6.43;3.80;;;;;;;;;;5023845;28;21035;-75
2021/11/25 04:45:39;;;;;;;4.40;3.63;;;;;;;;;;5038373;28;20218;-75
2021/11/25 04:48:05;;;;;;;4.30;3.50;;;;;;;;;;5039313;28;20226;-75
2021/11/25 04:50:33;;;;;;;4.67;3.90;;;;;;;;;;5072819;28;20225;-76
2021/11/25 04:53:02;;;;;;;5.10;3.60;;;;;;;;;;5056332;28;20618;-75
2021/11/25 04:55:30;;;;;;;4.53;3.93;;;;;;;;;;5072093;28;20759;-75
2021/11/25 04:57:55;;;;;;;4.57;3.83;;;;;;;;;;5069790;28;20227;-75
2021/11/25 05:00:25;;;;;;;4.53;4.13;;;;;;;;;;5071184;28;20246;-76
2021/11/25 05:02:51;;;;;;;5.00;4.30;;;;;;;;;;5039412;28;20225;-75
2021/11/25 05:05:17;;;;;;;5.53;4.00;;;;;;;;;;5055116;28;20222;-76
2021/11/25 05:07:45;;;;;;;5.10;4.00;;;;;;;;;;5023837;28;20382;-75
2021/11/25 05:10:12;;;;;;;4.70;4.20;;;;;;;;;;5040411;28;20704;-75
2021/11/25 05:12:40;;;;;;;5.37;4.40;;;;;;;;;;5035419;28;20227;-76
2021/11/25 05:15:09;;;;;;;5.13;3.90;;;;;;;;;;5034429;28;20305;-75
2021/11/25 05:17:35;;;;;;;4.70;4.20;;;;;;;;;;5018187;28;20605;-75
2021/11/25 05:20:04;;;;;;;4.70;4.00;;;;;;;;;;5034444;28;20219;-75
2021/11/25 05:22:29;;;;;;;4.37;3.60;;;;;;;;;;5051248;28;20243;-75
2021/11/25 05:24:57;;;;;;;6.90;4.20;;;;;;;;;;5034554;28;20349;-75
2021/11/25 05:27:23;;;;;;;4.77;3.70;;;;;;;;;;5014486;28;20216;-75
2021/11/25 05:29:49;;;;;;;6.13;4.43;;;;;;;;;;4998842;28;20605;-73
2021/11/25 05:32:16;;;;;;;6.10;4.37;;;;;;;;;;5017824;28;20223;-76
2021/11/25 05:34:45;;;;;;;5.33;4.47;;;;;;;;;;5018216;28;20689;-76
2021/11/25 05:37:13;;;;;;;5.27;4.30;;;;;;;;;;5007805;28;20672;-74
2021/11/25 05:39:39;;;;;;;5.23;4.50;;;;;;;;;;5023032;28;20215;-75
2021/11/25 05:42:08;;;;;;;6.70;4.53;;;;;;;;;;5016800;28;20611;-76
2021/11/25 05:44:34;;;;;;;4.80;3.80;;;;;;;;;;5017716;28;20223;-76
2021/11/25 05:47:02;;;;;;;6.57;3.97;;;;;;;;;;5033972;28;20227;-75
2021/11/25 05:49:31;;;;;;;5.57;4.73;;;;;;;;;;5030814;28;20222;-76
2021/11/25 05:52:01;;;;;;;5.83;4.93;;;;;;;;;;5026593;28;20223;-75
2021/11/25 05:54:29;;;;;;;8.40;6.13;;;;;;;;;;5032986;28;20219;-76
2021/11/25 05:56:58;;;;;;;5.53;4.70;;;;;;;;;;5032188;28;20230;-74
2021/11/25 05:59:24;;;;;;;5.57;5.03;;;;;;;;;;5010031;28;20579;-75
2021/11/25 06:01:52;;;;;;;7.40;4.50;;;;;;;;;;5033946;28;20222;-75
2021/11/25 06:04:18;;;;;;;6.07;5.47;;;;;;;;;;5016816;28;20325;-76
2021/11/25 06:06:46;;;;;;;7.33;5.83;;;;;;;;;;5017555;28;20241;-75
2021/11/25 06:09:11;;;;;;;8.63;5.10;;;;;;;;;;5027086;28;20246;-75
2021/11/25 06:11:37;;;;;;;7.93;5.30;;;;;;;;;;5033922;28;20249;-76
2021/11/25 06:14:07;;;;;;;7.83;4.70;;;;;;;;;;5042514;28;20222;-76
2021/11/25 06:16:32;;;;;;;5.00;3.90;;;;;;;;;;5050296;28;20329;-73
2021/11/25 06:18:58;;;;;;;7.07;4.10;;;;;;;;;;5017422;28;20231;-76
2021/11/25 06:21:28;;;;;;;4.60;4.07;;;;;;;;;;5050220;28;20218;-75
2021/11/25 06:23:53;;;;;;;4.43;3.90;;;;;;;;;;5052221;28;20242;-74
2021/11/25 06:26:19;;;;;;;5.93;4.60;;;;;;;;;;5000944;28;20637;-75
2021/11/25 06:28:48;;;;;;;5.77;5.10;;;;;;;;;;5017547;28;20221;-75
2021/11/25 06:31:16;;;;;;;5.50;4.87;;;;;;;;;;5050198;28;20289;-75
2021/11/25 06:33:44;;;;;;;8.13;5.17;;;;;;;;;;5030395;28;20251;-76
2021/11/25 06:36:10;;;;;;;5.97;4.60;;;;;;;;;;5043767;28;20235;-76
2021/11/25 06:38:36;;;;;;;6.07;5.30;;;;;;;;;;5054565;28;20222;-75
2021/11/25 06:41:07;;;;;;;5.87;5.10;;;;;;;;;;5038068;28;20234;-75
2021/11/25 06:43:33;;;;;;;6.87;5.57;;;;;;;;;;5041172;28;20218;-74
2021/11/25 06:45:59;;;;;;;7.37;5.40;;;;;;;;;;5051945;28;20235;-75
2021/11/25 06:48:28;;;;;;;5.90;4.83;;;;;;;;;;5078925;28;20221;-74
2021/11/25 06:50:54;;;;;;;7.33;5.47;;;;;;;;;;5047688;28;20233;-75
2021/11/25 06:53:21;;;;;;;6.43;4.90;;;;;;;;;;5037271;28;20224;-74
2021/11/25 06:55:49;;;;;;;8.20;5.57;;;;;;;;;;5033206;28;20779;-75
2021/11/25 06:58:17;;;;;;;6.70;5.10;;;;;;;;;;5034225;28;20231;-75
2021/11/25 07:00:48;;;;;;;6.23;5.13;;;;;;;;;;5034039;28;20215;-75
2021/11/25 07:03:16;;;;;;;6.00;5.37;;;;;;;;;;5048550;28;20653;-75
2021/11/25 07:05:44;;;;;;;6.30;5.70;;;;;;;;;;5032443;28;20324;-75
2021/11/25 07:08:12;;;;;;;8.40;6.33;;;;;;;;;;5034474;28;20313;-74
2021/11/25 07:10:38;;;;;;;9.30;7.70;;;;;;;;;;5039152;28;20203;-75
2021/11/25 07:13:03;;;;;;;9.10;8.20;;;;;;;;;;5037792;28;20212;-74
2021/11/25 07:15:30;;;;;;;9.17;7.30;;;;;;;;;;5024253;28;20234;-75
2021/11/25 07:17:56;;;;;;;7.60;6.23;;;;;;;;;;5050993;28;20305;-74
2021/11/25 07:20:25;;;;;;;7.40;6.13;;;;;;;;;;5032744;28;20211;-74
2021/11/25 07:22:53;;;;;;;7.97;6.30;;;;;;;;;;5047793;28;20681;-74
2021/11/25 07:25:23;;;;;;;8.07;6.57;;;;;;;;;;5033290;28;20230;-74
2021/11/25 07:27:49;;;;;;;8.87;6.77;;;;;;;;;;5012897;28;20226;-74
2021/11/25 07:30:20;;;;;;;8.57;6.87;;;;;;;;;;5010227;28;20216;-75
2021/11/25 07:32:49;;;;;;;8.43;7.60;;;;;;;;;;5016141;28;20219;-75
2021/11/25 07:35:17;;;;;;;11.20;9.20;;;;;;;;;;5031942;28;20246;-75
2021/11/25 07:37:43;;;;;;;10.63;8.37;;;;;;;;;;5048659;28;20658;-74
2021/11/25 07:40:09;;;;;;;11.40;9.10;;;;;;;;;;5014244;28;20223;-75
2021/11/25 07:42:37;;;;;;;10.00;8.43;;;;;;;;;;5012501;28;20220;-74
2021/11/25 07:45:04;;;;;;;9.70;8.30;;;;;;;;;;5028294;28;20208;-76
2021/11/25 07:47:37;;;;;;;10.77;8.53;;;;;;;;;;5033867;28;20227;-76
2021/11/25 07:50:07;;;;;;;8.80;7.37;;;;;;;;;;5032026;28;20310;-75
2021/11/25 07:52:35;;;;;;;10.63;7.90;;;;;;;;;;5032774;28;20640;-75
2021/11/25 07:55:09;;;;;;;8.73;7.83;;;;;;;;;;5029488;28;20318;-76
2021/11/25 07:57:35;;;;;;;11.63;8.57;;;;;;;;;;5015138;28;20760;-75
2021/11/25 08:00:04;;;;;;;9.30;8.00;;;;;;;;;;5030115;28;20258;-76
2021/11/25 08:02:40;;;;;;;8.70;7.13;;;;;;;;;;5048133;28;20672;-75
2021/11/25 08:05:11;;;;;;;18.40;12.57;;;;;;;;;;5047772;28;20310;-75
2021/11/25 08:07:40;;;;;;;13.93;11.60;;;;;;;;;;5043565;28;20212;-76
2021/11/25 08:10:07;;;;;;;12.07;8.80;;;;;;;;;;5047959;28;20250;-76
2021/11/25 08:12:35;;;;;;;9.50;7.93;;;;;;;;;;5015302;28;20215;-75
2021/11/25 08:15:01;;;;;;;10.20;8.17;;;;;;;;;;5032984;28;20215;-75
2021/11/25 08:17:26;;;;;;;12.10;9.00;;;;;;;;;;5019437;28;20215;-75
2021/11/25 08:19:54;;;;;;;13.83;9.10;;;;;;;;;;5052432;28;20227;-75
2021/11/25 08:22:20;;;;;;;14.33;10.30;;;;;;;;;;5003516;28;20222;-75
2021/11/25 08:24:48;;;;;;;11.40;10.07;;;;;;;;;;5028401;28;20212;-75
2021/11/25 08:27:14;;;;;;;12.03;10.57;;;;;;;;;;5049931;28;20226;-75
2021/11/25 08:29:45;;;;;;;15.83;11.47;;;;;;;;;;5011331;28;20212;-75
2021/11/25 08:32:11;;;;;;;13.77;11.30;;;;;;;;;;5046837;28;20215;-75
2021/11/25 08:34:37;;;;;;;15.43;12.37;;;;;;;;;;5041719;28;20280;-75
2021/11/25 08:37:05;;;;;;;16.57;12.40;;;;;;;;;;5023672;28;20235;-75
2021/11/25 08:39:37;;;;;;;16.57;12.40;;;;;;;;;;5049986;28;20264;-75
2021/11/25 08:42:05;;;;;;;13.73;12.00;;;;;;;;;;5017024;28;20219;-76
2021/11/25 08:44:31;;;;;;;16.70;12.70;;;;;;;;;;5035109;28;20353;-75
2021/11/25 08:46:59;;;;;;;15.43;12.97;;;;;;;;;;5053264;28;20226;-75
2021/11/25 08:49:24;;;;;;;18.17;13.37;;;;;;;;;;5051467;28;20251;-75
2021/11/25 08:51:50;;;;;;;16.80;12.73;;;;;;;;;;5035287;28;20295;-75
2021/11/25 08:54:17;;;;;;;19.90;13.50;;;;;;;;;;5051788;28;20689;-75
2021/11/25 08:56:42;;;;;;;18.90;14.20;;;;;;;;;;5034185;28;20227;-76
2021/11/25 08:59:11;;;;;;;17.37;14.03;;;;;;;;;;5019477;28;20266;-75
2021/11/25 09:01:37;;;;;;;19.07;14.67;;;;;;;;;;5039003;28;20219;-75
2021/11/25 09:04:08;;;;;;;17.90;14.87;;;;;;;;;;5070100;28;20279;-75
2021/11/25 09:06:39;;;;;;;17.63;15.37;;;;;;;;;;5031485;28;20273;-75
2021/11/25 09:09:09;;;;;;;22.13;15.37;;;;;;;;;;5041323;28;20222;-76
2021/11/25 09:11:35;;;;;;;22.13;16.03;;;;;;;;;;5056138;28;20700;-75
2021/11/25 09:14:04;;;;;;;23.07;16.50;;;;;;;;;;5039188;28;20221;-76
2021/11/25 09:16:32;;;;;;;19.70;16.33;;;;;;;;;;4998802;28;20238;-74
2021/11/25 09:19:03;;;;;;;22.37;16.30;;;;;;;;;;5009397;28;20220;-74
2021/11/25 09:21:30;;;;;;;20.73;16.63;;;;;;;;;;5062826;28;20222;-75
2021/11/25 09:24:04;;;;;;;23.67;17.13;;;;;;;;;;5049513;28;20230;-73
2021/11/25 09:26:30;;;;;;;22.47;18.00;;;;;;;;;;5023065;28;20233;-75
2021/11/25 09:28:59;;;;;;;21.90;17.03;;;;;;;;;;5084631;28;20213;-74
2021/11/25 09:31:28;;;;;;;22.30;17.30;;;;;;;;;;5074248;28;20218;-75
2021/11/25 09:33:54;;;;;;;23.40;17.13;;;;;;;;;;5039059;28;20766;-74
2021/11/25 09:36:22;;;;;;;21.70;16.87;;;;;;;;;;5037139;28;20230;-74
2021/11/25 09:38:50;;;;;;;21.93;16.80;;;;;;;;;;5017952;28;20252;-76
2021/11/25 09:41:18;;;;;;;21.70;18.10;;;;;;;;;;5050959;28;20249;-75
2021/11/25 09:43:47;;;;;;;22.27;17.73;;;;;;;;;;5049625;28;20261;-75
2021/11/25 09:46:19;;;;;;;22.60;17.50;;;;;;;;;;5066189;28;20632;-74
2021/11/25 09:48:45;;;;;;;24.17;18.43;;;;;;;;;;5047984;28;20215;-74
2021/11/25 09:51:15;;;;;;;25.13;18.47;;;;;;;;;;5036799;28;20223;-74
2021/11/25 09:53:43;;;;;;;27.97;19.10;;;;;;;;;;5017354;28;20239;-74
2021/11/25 09:56:11;;;;;;;25.03;19.47;;;;;;;;;;5067683;28;20230;-75
2021/11/25 09:58:37;;;;;;;25.47;20.00;;;;;;;;;;5085872;28;20217;-75
2021/11/25 10:01:07;;;;;;;27.80;19.40;;;;;;;;;;5030727;28;20593;-75
2021/11/25 10:03:34;;;;;;;31.00;20.13;;;;;;;;;;5071385;28;20276;-74
2021/11/25 10:06:00;;;;;;;27.03;19.70;;;;;;;;;;5047838;28;20772;-74
2021/11/25 10:08:36;;;;;;;25.30;19.00;;;;;;;;;;5055737;28;20257;-74
2021/11/25 10:11:11;;;;;;;26.17;18.60;;;;;;;;;;5038470;28;20754;-75
2021/11/25 10:13:41;;;;;;;26.73;19.67;;;;;;;;;;5034493;28;20650;-74
2021/11/25 10:16:09;;;;;;;28.07;19.97;;;;;;;;;;5033995;28;20280;-74
2021/11/25 10:18:35;;;;;;;27.03;20.17;;;;;;;;;;5024121;28;20699;-75
2021/11/25 10:21:09;;;;;;;29.37;19.77;;;;;;;;;;5022369;28;20220;-74
2021/11/25 10:23:38;;;;;;;27.13;20.13;;;;;;;;;;5046074;28;20226;-75
2021/11/25 10:26:07;;;;;;;32.13;21.03;;;;;;;;;;5047157;28;20270;-74
2021/11/25 10:28:48;;;;;;;30.73;21.87;;;;;;;;;;5034187;28;20302;-75
2021/11/25 10:31:30;;;;;;;27.40;20.63;;;;;;;;;;5043302;28;20240;-75
2021/11/25 10:34:05;;;;;;;28.53;20.93;;;;;;;;;;5033232;28;20231;-75
2021/11/25 10:39:09;;;;;;;29.40;20.83;;;;;;;;;;5057430;28;20720;-74
2021/11/25 10:41:38;;;;;;;32.20;22.30;;;;;;;;;;5036025;28;20289;-74
2021/11/25 10:44:09;;;;;;;29.97;21.00;;;;;;;;;;5001281;28;20224;-75
2021/11/25 10:46:43;;;;;;;32.00;21.77;;;;;;;;;;5031074;28;20225;-74
2021/11/25 10:49:11;;;;;;;28.83;22.07;;;;;;;;;;5049246;28;20220;-73
2021/11/25 10:51:43;;;;;;;28.40;21.97;;;;;;;;;;5035634;28;20216;-73
2021/11/25 10:54:12;;;;;;;31.33;22.40;;;;;;;;;;5030330;28;20219;-74
2021/11/25 10:56:53;;;;;;;31.40;23.23;;;;;;;;;;5049359;28;20231;-74
2021/11/25 10:59:20;;;;;;;32.47;23.40;;;;;;;;;;5026861;28;21233;-74
2021/11/25 11:01:49;;;;;;;32.53;23.80;;;;;;;;;;5013925;28;20246;-74
2021/11/25 11:04:17;;;;;;;31.67;23.27;;;;;;;;;;5015813;28;20230;-73
2021/11/25 11:06:48;;;;;;;28.30;22.17;;;;;;;;;;5048519;28;20552;-76
2021/11/25 11:09:30;;;;;;;29.00;22.77;;;;;;;;;;5033437;28;20220;-75
2021/11/25 11:12:18;;;;;;;29.73;22.70;;;;;;;;;;5028804;28;20215;-74
2021/11/25 11:14:51;;;;;;;31.20;23.17;;;;;;;;;;5039248;28;20249;-75
2021/11/25 11:17:26;;;;;;;31.30;24.20;;;;;;;;;;5042689;28;20696;-73
2021/11/25 11:20:10;;;;;;;30.90;21.67;;;;;;;;;;5054263;28;20317;-74
2021/11/25 11:22:35;;;;;;;30.00;22.43;;;;;;;;;;5017202;28;20271;-75
2021/11/25 11:25:05;;;;;;;29.50;21.73;;;;;;;;;;5050510;28;20211;-76
2021/11/25 11:27:31;;;;;;;30.60;22.63;;;;;;;;;;5013897;28;20231;-74
2021/11/25 11:29:57;;;;;;;31.10;22.97;;;;;;;;;;5020582;28;20227;-74
2021/11/25 11:32:25;;;;;;;30.77;22.83;;;;;;;;;;5031452;28;20219;-73
2021/11/25 11:34:53;;;;;;;28.47;21.90;;;;;;;;;;5015291;28;20220;-75
2021/11/25 11:37:20;;;;;;;30.43;22.30;;;;;;;;;;5032544;28;20643;-75
2021/11/25 11:39:46;;;;;;;24.83;20.67;;;;;;;;;;5032111;28;20219;-73
2021/11/25 11:42:16;;;;;;;26.93;21.50;;;;;;;;;;5034423;28;20599;-75
2021/11/25 11:44:45;;;;;;;29.27;22.30;;;;;;;;;;5033577;28;20219;-74
2021/11/25 11:47:16;;;;;;;26.43;21.63;;;;;;;;;;5028959;28;20302;-75
2021/11/25 11:49:44;;;;;;;26.83;21.77;;;;;;;;;;5021030;28;20211;-74
2021/11/25 11:52:14;;;;;;;26.17;21.33;;;;;;;;;;5048238;28;20229;-74
2021/11/25 11:54:47;;;;;;;25.80;20.93;;;;;;;;;;5023965;28;20215;-75
2021/11/25 11:57:31;;;;;;;26.47;20.87;;;;;;;;;;5062276;28;20235;-74
2021/11/25 12:00:20;;;;;;;24.70;20.63;;;;;;;;;;5064295;28;20222;-75
2021/11/25 12:02:51;;;;;;;27.07;21.63;;;;;;;;;;5047255;28;20226;-74
2021/11/25 12:05:39;;;;;;;26.53;21.13;;;;;;;;;;5030527;28;20239;-74
2021/11/25 12:08:16;;;;;;;25.83;20.03;;;;;;;;;;5063756;28;20250;-76
2021/11/25 12:10:54;;;;;;;25.50;21.20;;;;;;;;;;5070050;28;20297;-75
2021/11/25 12:13:23;;;;;;;26.30;20.53;;;;;;;;;;5053894;28;20625;-75
2021/11/25 12:15:48;;;;;;;24.83;21.57;;;;;;;;;;5027968;28;20211;-75
2021/11/25 12:18:52;;;;;;;25.20;20.90;;;;;;;;;;5040342;28;20238;-75
2021/11/25 12:21:38;;;;;;;26.33;20.30;;;;;;;;;;5033896;28;20312;-74
2021/11/25 12:24:15;;;;;;;25.17;20.40;;;;;;;;;;5044168;28;20235;-74
2021/11/25 12:27:07;;;;;;;25.83;21.87;;;;;;;;;;5053577;28;20700;-74
2021/11/25 12:29:43;;;;;;;26.80;21.03;;;;;;;;;;5049890;28;20211;-75
2021/11/25 12:32:52;;;;;;;26.97;21.97;;;;;;;;;;5028736;28;20224;-75
2021/11/25 12:35:18;;;;;;;26.97;20.97;;;;;;;;;;5035086;28;20219;-75
2021/11/25 12:37:49;;;;;;;28.53;22.43;;;;;;;;;;5053726;28;20223;-74
2021/11/25 12:40:15;;;;;;;27.70;21.60;;;;;;;;;;5054222;28;20235;-74
2021/11/25 12:43:03;;;;;;;26.50;21.23;;;;;;;;;;5054586;28;20685;-74
2021/11/25 12:45:38;;;;;;;27.77;21.50;;;;;;;;;;5032887;28;20238;-74
2021/11/25 12:48:09;;;;;;;24.20;19.67;;;;;;;;;;5041203;28;20766;-74
2021/11/25 12:50:44;;;;;;;25.83;21.80;;;;;;;;;;5053157;28;20211;-76
2021/11/25 12:53:15;;;;;;;29.63;21.40;;;;;;;;;;5041373;28;20696;-76
2021/11/25 12:55:44;;;;;;;25.77;21.40;;;;;;;;;;5058866;28;20234;-75
2021/11/25 12:58:10;;;;;;;29.07;23.33;;;;;;;;;;5035804;28;20220;-75
2021/11/25 13:00:42;;;;;;;32.90;23.73;;;;;;;;;;5035838;28;20223;-75
2021/11/25 13:03:19;;;;;;;30.97;22.70;;;;;;;;;;5050177;28;20227;-74
2021/11/25 13:05:51;;;;;;;31.90;24.23;;;;;;;;;;5036269;28;20762;-75
2021/11/25 13:08:28;;;;;;;30.37;24.73;;;;;;;;;;5029204;28;20212;-74
2021/11/25 13:10:53;;;;;;;31.90;25.60;;;;;;;;;;5046870;28;20245;-75
2021/11/25 13:13:21;;;;;;;29.80;24.97;;;;;;;;;;5048741;28;20212;-74
2021/11/25 13:16:00;;;;;;;34.40;25.43;;;;;;;;;;5041225;28;20219;-74
2021/11/25 13:18:57;;;;;;;35.00;26.20;;;;;;;;;;5046654;28;20631;-74
2021/11/25 13:21:31;;;;;;;34.67;26.20;;;;;;;;;;5030076;28;20303;-74
2021/11/25 13:24:04;;;;;;;35.77;28.23;;;;;;;;;;5034605;28;20231;-74
2021/11/25 13:26:46;;;;;;;40.17;33.40;;;;;;;;;;5043491;28;20235;-78
2021/11/25 13:29:12;;;;;;;38.00;29.27;;;;;;;;;;5048876;28;20298;-73
2021/11/25 13:31:40;;;;;;;36.13;28.30;;;;;;;;;;5031606;28;20253;-75
2021/11/25 13:34:07;;;;;;;34.13;28.03;;;;;;;;;;5033632;28;20220;-72
2021/11/25 13:36:38;;;;;;;35.73;29.30;;;;;;;;;;5033048;28;20212;-74
2021/11/25 13:39:04;;;;;;;38.73;30.53;;;;;;;;;;5052758;28;20289;-74
2021/11/25 13:41:35;;;;;;;36.70;29.60;;;;;;;;;;5021572;28;20226;-74
2021/11/25 13:44:00;;;;;;;38.20;30.13;;;;;;;;;;5036060;28;20223;-74
2021/11/25 13:46:42;;;;;;;37.17;28.47;;;;;;;;;;5057134;28;20282;-75
2021/11/25 13:49:10;;;;;;;33.83;27.83;;;;;;;;;;5054945;28;20782;-73
2021/11/25 13:51:40;;;;;;;37.70;30.17;;;;;;;;;;5035540;28;20222;-73
2021/11/25 13:54:14;;;;;;;39.20;29.37;;;;;;;;;;5035887;28;20342;-73
2021/11/25 13:56:42;;;;;;;41.07;30.97;;;;;;;;;;5003613;28;20337;-74
2021/11/25 13:59:09;;;;;;;36.03;29.43;;;;;;;;;;5018817;28;20893;-74
2021/11/25 14:01:35;;;;;;;38.60;29.17;;;;;;;;;;5031063;28;20212;-74
2021/11/25 14:04:05;;;;;;;36.13;30.47;;;;;;;;;;5021740;28;20230;-72
2021/11/25 14:06:35;;;;;;;34.67;28.43;;;;;;;;;;5045977;28;20223;-76
2021/11/25 14:09:17;;;;;;;37.23;30.10;;;;;;;;;;5037634;28;20253;-74
2021/11/25 14:11:57;;;;;;;34.70;28.87;;;;;;;;;;5050978;28;20239;-74
2021/11/25 14:14:33;;;;;;;37.40;29.97;;;;;;;;;;5047174;28;20222;-74
2021/11/25 14:17:03;;;;;;;36.53;27.97;;;;;;;;;;5063842;28;20223;-75
2021/11/25 14:19:31;;;;;;;38.77;29.80;;;;;;;;;;5038749;28;20219;-74
2021/11/25 14:22:00;;;;;;;35.50;28.37;;;;;;;;;;5055786;28;20234;-74
2021/11/25 14:24:28;;;;;;;37.43;30.97;;;;;;;;;;5053695;28;20271;-74
2021/11/25 14:30:16;;;;;;;41.97;31.53;;;;;;;;;;5067210;28;20275;-75
2021/11/25 14:32:59;;;;;;;37.80;28.53;;;;;;;;;;5031492;28;20239;-74
2021/11/25 14:35:24;;;;;;;41.20;31.40;;;;;;;;;;5018752;28;20607;-74
2021/11/25 14:37:53;;;;;;;42.47;31.60;;;;;;;;;;5070027;28;20776;-74
2021/11/25 14:40:21;;;;;;;40.33;33.17;;;;;;;;;;5031096;28;20270;-74
2021/11/25 14:43:03;;;;;;;41.17;30.90;;;;;;;;;;5042053;28;20601;-73
2021/11/25 14:45:30;;;;;;;41.33;31.57;;;;;;;;;;5037358;28;20268;-73
2021/11/25 14:48:03;;;;;;;42.33;33.20;;;;;;;;;;5064292;28;20223;-75
2021/11/25 14:50:39;;;;;;;43.53;32.53;;;;;;;;;;5058587;28;20215;-73
2021/11/25 14:53:18;;;;;;;43.40;31.57;;;;;;;;;;5035230;28;20273;-75
2021/11/25 14:56:10;;;;;;;43.77;33.47;;;;;;;;;;5039516;28;20309;-73